Leota, Minnesota
Current Conditions -  °F | °C
As of 8:14 AM on Thursday 30 Oct 2014 (Local Time) from KDVP Reporting Station
Overcast Overcast  
Wind Chill: 40°   Ceiling: 7000
Heat Index: 40°   Visibility: 10mi
Dew Point: 35°   Wind: 0mph
Humidity: 83%   Direction: NA
Pressure: 30.01"   Gusts: NA
Location:  43.83°N, 96.01°W
Report Text: KDVP 301314Z AUTO 00000KT 10SM OVC070 04/02 A3001 RMK AO2 T00440018
Loading
Personal Weather Stations






























Interactive Weather Map
Tropical Storm Tracking
New forecast layout! Learn more

10-Day Weather Forecast

Advertisements
Track Severe Weather on mobile